Time;durP1;ratioP1;P1;durP2;ratioP2;P2;SDS_P1;SDS_P2;PMS_P1;PMS_P2;Temp;Humidity;BMP_temperature;BMP_pressure;BME280_temperature;BME280_humidity;BME280_pressure;Samples;Min_cycle;Max_cycle;Signal;HPM_P1;HPM_P2
2023/07/21 00:00:45;;;;;;;7.63;5.17;;;;;;;25.29;71.90;100423.09;5061151;28;20108;-65
2023/07/21 00:03:17;;;;;;;8.93;5.33;;;;;;;25.21;71.50;100412.13;5072197;28;20048;-64
2023/07/21 00:05:50;;;;;;;9.20;6.13;;;;;;;25.25;70.45;100431.47;5060526;28;20453;-65
2023/07/21 00:08:20;;;;;;;10.47;6.00;;;;;;;25.20;70.26;100426.44;5070638;28;20048;-63
2023/07/21 00:10:51;;;;;;;10.80;6.33;;;;;;;25.36;68.69;100429.69;5061572;28;20187;-62
2023/07/21 00:13:22;;;;;;;10.77;6.80;;;;;;;25.51;67.57;100426.78;5069621;28;20118;-63
2023/07/21 00:16:02;;;;;;;10.23;6.57;;;;;;;25.80;67.41;100429.91;5060729;28;20413;-61
2023/07/21 00:18:49;;;;;;;10.63;6.80;;;;;;;26.09;67.42;100427.69;5070056;28;20064;-65
2023/07/21 00:21:34;;;;;;;10.27;7.47;;;;;;;26.14;65.77;100430.84;5070917;28;20051;-65
2023/07/21 00:24:20;;;;;;;10.90;6.97;;;;;;;26.19;66.46;100423.28;5059596;28;20147;-63
2023/07/21 00:26:58;;;;;;;12.03;8.00;;;;;;;26.39;66.76;100428.91;5058241;28;20059;-62
2023/07/21 00:29:38;;;;;;;11.80;6.93;;;;;;;26.54;65.86;100422.34;5069502;28;20067;-63
2023/07/21 00:32:20;;;;;;;11.57;7.20;;;;;;;26.73;64.85;100426.19;5060201;28;20051;-61
2023/07/21 00:35:02;;;;;;;11.77;7.47;;;;;;;26.85;63.60;100425.19;5059079;28;20044;-59
2023/07/21 00:37:48;;;;;;;10.53;7.67;;;;;;;27.00;63.69;100418.56;5068974;28;20053;-64
2023/07/21 00:40:32;;;;;;;13.40;7.63;;;;;;;27.10;63.09;100419.47;5069035;28;20051;-62
2023/07/21 00:43:21;;;;;;;12.37;7.67;;;;;;;27.33;62.88;100424.78;5059774;28;20521;-60
2023/07/21 00:46:06;;;;;;;12.17;7.87;;;;;;;27.44;61.89;100427.44;5059265;28;20052;-62
2023/07/21 00:48:51;;;;;;;14.03;7.93;;;;;;;27.53;61.60;100415.03;5066668;28;20048;-63
2023/07/21 00:51:33;;;;;;;14.67;8.30;;;;;;;27.63;60.44;100410.63;5070851;28;20104;-61
2023/07/21 00:54:10;;;;;;;12.97;7.60;;;;;;;27.61;60.00;100417.06;5059837;28;20395;-63
2023/07/21 00:56:41;;;;;;;15.37;8.83;;;;;;;27.68;61.32;100423.63;5068459;28;20063;-62
2023/07/21 00:59:11;;;;;;;15.57;8.77;;;;;;;27.95;61.43;100421.28;5071393;28;20112;-64
2023/07/21 01:01:42;;;;;;;12.27;8.53;;;;;;;28.08;59.42;100422.88;5059399;28;20044;-60
2023/07/21 01:04:13;;;;;;;15.13;8.73;;;;;;;28.07;58.60;100424.72;5070248;28;20143;-61
2023/07/21 01:06:45;;;;;;;13.07;7.80;;;;;;;28.21;60.46;100423.53;5059919;28;20159;-62
2023/07/21 01:09:19;;;;;;;11.73;7.87;;;;;;;28.31;58.34;100416.34;5071269;28;20047;-61
2023/07/21 01:11:49;;;;;;;15.87;8.40;;;;;;;28.32;58.59;100423.41;5059637;28;20085;-62
2023/07/21 01:14:20;;;;;;;12.97;8.27;;;;;;;28.46;59.04;100418.72;5071492;28;20047;-63
2023/07/21 01:16:52;;;;;;;23.37;9.37;;;;;;;28.59;58.09;100422.00;5058811;28;20079;-62
2023/07/21 01:19:23;;;;;;;14.70;9.17;;;;;;;28.70;58.56;100421.84;5070176;28;20051;-64
2023/07/21 01:22:00;;;;;;;16.30;9.60;;;;;;;28.90;58.22;100427.28;5060911;28;20112;-61
2023/07/21 01:24:38;;;;;;;13.57;8.73;;;;;;;28.97;57.81;100423.03;5070128;28;20119;-63
2023/07/21 01:27:13;;;;;;;22.77;9.20;;;;;;;29.03;56.59;100419.78;5058799;28;20043;-64
2023/07/21 01:29:46;;;;;;;14.23;8.77;;;;;;;29.06;56.56;100421.41;5059343;28;20091;-64
2023/07/21 01:32:20;;;;;;;14.47;9.60;;;;;;;29.04;57.01;100402.66;5068897;28;20105;-65
2023/07/21 01:34:52;;;;;;;16.50;8.70;;;;;;;29.09;55.56;100395.06;5059853;28;20051;-63
2023/07/21 01:37:23;;;;;;;20.23;9.57;;;;;;;29.09;56.01;100403.13;5069726;28;20142;-60
2023/07/21 01:39:54;;;;;;;18.03;9.93;;;;;;;29.14;55.69;100449.28;5062863;28;20064;-62
2023/07/21 01:42:29;;;;;;;17.43;9.37;;;;;;;29.23;55.71;100451.13;5074691;28;20370;-63
2023/07/21 01:45:02;;;;;;;17.50;9.77;;;;;;;29.36;54.92;100450.00;5063191;28;20123;-64
2023/07/21 01:47:34;;;;;;;14.27;9.77;;;;;;;29.44;54.86;100447.44;5073047;28;20096;-64
2023/07/21 01:50:08;;;;;;;19.50;9.70;;;;;;;29.51;55.24;100443.19;5063242;28;20070;-63
2023/07/21 01:52:39;;;;;;;15.10;9.57;;;;;;;29.60;54.74;100453.09;5073469;28;20450;-61
2023/07/21 01:55:15;;;;;;;26.57;9.77;;;;;;;29.58;55.09;100438.94;5063366;28;20076;-60
2023/07/21 01:57:54;;;;;;;13.07;9.10;;;;;;;29.61;54.12;100438.66;5061491;28;20543;-64
2023/07/21 02:00:28;;;;;;;19.27;10.50;;;;;;;29.34;54.43;100406.22;5073861;28;20048;-63
2023/07/21 02:03:12;;;;;;;18.47;9.97;;;;;;;29.33;53.62;100431.44;5062962;28;20142;-62
2023/07/21 02:05:43;;;;;;;17.03;9.10;;;;;;;29.37;54.29;100440.94;5063707;28;20147;-62
2023/07/21 02:08:13;;;;;;;13.47;9.50;;;;;;;29.30;54.05;100446.03;5072761;28;20079;-63
2023/07/21 02:10:44;;;;;;;17.60;9.07;;;;;;;29.33;55.27;100444.88;5062898;28;20671;-65
2023/07/21 02:13:16;;;;;;;17.27;9.00;;;;;;;29.49;55.33;100453.25;5073526;28;21319;-63
2023/07/21 02:15:47;;;;;;;13.50;9.10;;;;;;;29.61;55.40;100445.88;5063103;28;20071;-66
2023/07/21 02:18:17;;;;;;;17.43;9.13;;;;;;;29.77;55.08;100450.69;5074286;28;20108;-64
2023/07/21 02:20:48;;;;;;;14.60;8.30;;;;;;;29.87;54.69;100451.53;5061588;28;20048;-63
2023/07/21 02:23:18;;;;;;;15.97;9.03;;;;;;;29.91;53.66;100450.25;5071266;28;20052;-59
2023/07/21 02:25:49;;;;;;;15.63;8.93;;;;;;;29.91;53.23;100439.47;5061726;28;20048;-65
2023/07/21 02:28:21;;;;;;;15.37;9.23;;;;;;;29.93;52.71;100437.50;5073382;28;20162;-64
2023/07/21 02:31:02;;;;;;;19.37;9.70;;;;;;;29.87;53.21;100427.28;5063896;28;20056;-64
2023/07/21 02:33:32;;;;;;;12.87;9.07;;;;;;;29.92;51.03;100446.53;5071859;28;20051;-63
2023/07/21 02:36:05;;;;;;;13.40;9.23;;;;;;;29.92;52.57;100435.78;5062508;28;20044;-63
2023/07/21 02:38:35;;;;;;;16.70;8.53;;;;;;;29.84;51.67;100422.19;5074172;28;20458;-65
2023/07/21 02:41:08;;;;;;;15.90;9.60;;;;;;;29.69;52.04;100405.63;5063022;28;20134;-62
2023/07/21 02:43:41;;;;;;;17.00;9.27;;;;;;;29.91;52.24;100428.69;5073190;28;20072;-65
2023/07/21 02:46:13;;;;;;;11.47;8.70;;;;;;;30.00;52.20;100438.56;5062186;28;20077;-61
2023/07/21 02:48:43;;;;;;;17.63;9.53;;;;;;;29.94;51.07;100433.78;5061794;28;20062;-62
2023/07/21 02:51:14;;;;;;;11.60;8.23;;;;;;;29.95;51.94;100419.31;5071053;28;20071;-64
2023/07/21 02:53:45;;;;;;;12.90;9.07;;;;;;;29.91;52.05;100420.63;5062057;28;20087;-62
2023/07/21 02:56:16;;;;;;;13.73;8.37;;;;;;;29.90;50.94;100426.97;5072546;28;20093;-63
2023/07/21 02:58:48;;;;;;;17.33;8.30;;;;;;;29.91;50.70;100428.69;5062076;28;20131;-62
2023/07/21 03:01:20;;;;;;;12.20;8.10;;;;;;;29.84;50.45;100430.28;5073011;28;20537;-62
2023/07/21 03:03:54;;;;;;;16.97;8.73;;;;;;;29.73;51.02;100425.03;5061434;28;20506;-64
2023/07/21 03:06:25;;;;;;;17.07;8.33;;;;;;;29.67;51.44;100421.94;5071627;28;20134;-64
2023/07/21 03:08:56;;;;;;;20.47;8.37;;;;;;;29.73;52.43;100422.34;5062067;28;20061;-64
2023/07/21 03:11:28;;;;;;;11.70;8.27;;;;;;;29.79;52.47;100419.09;5072257;28;20108;-65
2023/07/21 03:14:00;;;;;;;12.00;8.80;;;;;;;29.90;52.23;100418.91;5061751;28;20114;-60
2023/07/21 03:16:31;;;;;;;16.60;9.80;;;;;;;29.73;50.61;100408.88;5072326;28;20044;-61
2023/07/21 03:19:01;;;;;;;18.67;8.03;;;;;;;29.86;49.79;100422.91;5061746;28;20053;-64
2023/07/21 03:21:32;;;;;;;13.33;7.60;;;;;;;29.96;49.35;100421.03;5071316;28;20089;-63
2023/07/21 03:24:05;;;;;;;11.23;8.40;;;;;;;29.90;48.31;100421.59;5043710;28;20486;-64
2023/07/21 03:26:36;;;;;;;12.03;8.13;;;;;;;29.91;49.53;100423.31;5071743;28;20136;-64
2023/07/21 03:29:08;;;;;;;12.70;7.90;;;;;;;29.95;49.37;100423.84;5060288;28;20101;-60
2023/07/21 03:31:39;;;;;;;14.77;8.03;;;;;;;29.99;50.90;100419.88;5072188;28;20125;-63
2023/07/21 03:34:09;;;;;;;11.23;7.80;;;;;;;30.12;50.39;100419.53;5062327;28;20048;-60
2023/07/21 03:36:40;;;;;;;11.43;8.20;;;;;;;30.21;49.50;100415.97;5072488;28;20051;-62
2023/07/21 03:39:10;;;;;;;13.57;7.77;;;;;;;30.20;49.46;100419.66;5059113;28;20079;-65
2023/07/21 03:41:41;;;;;;;12.63;7.83;;;;;;;30.17;49.42;100417.25;5064533;28;20048;-62
2023/07/21 03:44:14;;;;;;;11.10;8.10;;;;;;;30.31;49.87;100408.72;5071374;28;20047;-60
2023/07/21 03:46:44;;;;;;;9.83;6.80;;;;;;;30.42;49.88;100416.59;5061727;28;20044;-65
2023/07/21 03:49:15;;;;;;;9.40;7.30;;;;;;;30.44;49.54;100403.81;5070631;28;20054;-65
2023/07/21 03:51:46;;;;;;;10.50;7.00;;;;;;;30.35;49.21;100410.09;5060759;28;20052;-66
2023/07/21 03:54:16;;;;;;;9.67;7.20;;;;;;;30.39;49.52;100413.34;5070817;28;20095;-65
2023/07/21 03:56:47;;;;;;;9.73;7.30;;;;;;;30.24;49.21;100415.66;5061372;28;20489;-66
2023/07/21 03:59:19;;;;;;;8.87;6.60;;;;;;;30.16;49.15;100404.78;5070999;28;20052;-62
2023/07/21 04:01:49;;;;;;;9.80;7.13;;;;;;;29.86;49.61;100393.28;5060585;28;20052;-66
2023/07/21 04:04:20;;;;;;;10.30;7.10;;;;;;;29.77;50.34;100410.28;5069916;28;20052;-66
2023/07/21 04:06:51;;;;;;;16.97;7.00;;;;;;;29.85;51.79;100415.78;5059423;28;20047;-65
2023/07/21 04:09:23;;;;;;;10.77;7.60;;;;;;;29.93;52.09;100415.94;5069894;28;20064;-64
2023/07/21 04:11:54;;;;;;;11.30;7.50;;;;;;;30.09;52.67;100404.53;5060320;28;20462;-64
2023/07/21 04:14:26;;;;;;;13.10;7.17;;;;;;;30.24;52.82;100407.59;5070979;28;20379;-64
2023/07/21 04:16:57;;;;;;;14.87;7.53;;;;;;;30.45;54.07;100415.44;5060515;28;20505;-65
2023/07/21 04:19:28;;;;;;;15.10;7.63;;;;;;;30.46;53.24;100411.75;5071464;28;20036;-65
2023/07/21 04:22:00;;;;;;;16.87;7.67;;;;;;;30.30;52.54;100417.78;5061479;28;20147;-62
2023/07/21 04:24:30;;;;;;;14.53;7.10;;;;;;;30.09;52.80;100405.38;5069538;28;20170;-63
2023/07/21 04:27:01;;;;;;;16.60;6.53;;;;;;;30.03;53.66;100405.97;5060939;28;20072;-57
2023/07/21 04:29:33;;;;;;;14.13;7.37;;;;;;;30.00;53.98;100406.25;5071366;28;20489;-65
2023/07/21 04:32:06;;;;;;;14.77;7.37;;;;;;;29.93;54.02;100415.06;5059887;28;20082;-64
2023/07/21 04:34:37;;;;;;;15.97;7.03;;;;;;;30.00;54.32;100408.94;5072290;28;20055;-63
2023/07/21 04:37:09;;;;;;;19.67;7.20;;;;;;;30.10;53.92;100399.00;5060185;28;20120;-62
2023/07/21 04:39:40;;;;;;;11.53;6.93;;;;;;;30.13;53.17;100410.44;5070652;28;20131;-63
2023/07/21 04:42:10;;;;;;;10.70;6.53;;;;;;;30.25;54.44;100404.78;5060253;28;20170;-64
2023/07/21 04:44:43;;;;;;;10.83;6.93;;;;;;;30.34;52.63;100408.41;5066951;28;20051;-63
2023/07/21 04:47:13;;;;;;;12.07;6.53;;;;;;;30.44;52.86;100403.81;5069995;28;20067;-65
2023/07/21 04:49:44;;;;;;;13.80;6.93;;;;;;;30.57;53.39;100397.22;5058370;28;20125;-63
2023/07/21 04:52:14;;;;;;;12.77;6.83;;;;;;;30.61;52.22;100409.41;5070102;28;20130;-63
2023/07/21 04:54:45;;;;;;;12.43;6.87;;;;;;;30.62;51.88;100403.00;5059946;28;20056;-65
2023/07/21 04:57:19;;;;;;;43.13;9.00;;;;;;;30.69;53.03;100406.78;5070662;28;20102;-64
2023/07/21 04:59:51;;;;;;;24.67;8.23;;;;;;;30.72;52.91;100406.47;5059901;28;20036;-63
2023/07/21 05:02:23;;;;;;;18.70;7.47;;;;;;;30.74;52.77;100394.53;5070415;28;20083;-65
2023/07/21 05:04:54;;;;;;;12.47;7.70;;;;;;;30.83;52.64;100406.31;5058630;28;20540;-62
2023/07/21 05:07:26;;;;;;;14.23;7.93;;;;;;;30.74;52.18;100401.78;5069544;28;20063;-65
2023/07/21 05:09:57;;;;;;;62.90;11.40;;;;;;;30.66;52.79;100396.31;5060590;28;20051;-66
2023/07/21 05:12:27;;;;;;;19.80;7.87;;;;;;;30.67;51.76;100392.59;5070507;28;20534;-63
2023/07/21 05:15:00;;;;;;;12.17;7.00;;;;;;;30.45;51.56;100396.56;5059017;28;20355;-65
2023/07/21 05:17:30;;;;;;;21.70;6.87;;;;;;;30.31;52.79;100397.94;5066168;28;20147;-63
2023/07/21 05:20:03;;;;;;;14.90;6.60;;;;;;;30.35;53.30;100399.31;5060020;28;20119;-64
2023/07/21 05:22:33;;;;;;;10.67;6.67;;;;;;;30.38;53.20;100388.25;5070503;28;20141;-65
2023/07/21 05:25:06;;;;;;;17.83;6.60;;;;;;;30.38;53.04;100399.03;5060248;28;20062;-60
2023/07/21 05:27:36;;;;;;;10.30;6.20;;;;;;;30.45;53.98;100400.13;5070593;28;20542;-64
2023/07/21 05:30:11;;;;;;;12.97;6.70;;;;;;;30.42;52.61;100397.72;5058993;28;20064;-66
2023/07/21 05:32:42;;;;;;;14.23;6.90;;;;;;;30.35;53.70;100410.09;5064780;28;20109;-65
2023/07/21 05:35:13;;;;;;;10.83;6.13;;;;;;;30.26;52.70;100405.63;5071006;28;20044;-62
2023/07/21 05:37:44;;;;;;;18.13;7.37;;;;;;;30.23;52.81;100408.56;5061120;28;20048;-65
2023/07/21 05:40:15;;;;;;;15.47;8.13;;;;;;;30.34;52.78;100408.41;5070501;28;20132;-65
2023/07/21 05:42:48;;;;;;;11.97;6.90;;;;;;;30.38;52.66;100393.66;5060785;28;20097;-65
2023/07/21 05:45:21;;;;;;;15.67;7.43;;;;;;;30.46;52.76;100390.19;5071001;28;20051;-62
2023/07/21 05:47:53;;;;;;;13.10;7.17;;;;;;;30.62;52.99;100411.94;5059205;28;20464;-64
2023/07/21 05:50:23;;;;;;;16.13;7.50;;;;;;;30.56;52.75;100403.63;5069995;28;20048;-64
2023/07/21 05:52:54;;;;;;;24.17;7.60;;;;;;;30.43;53.33;100404.81;5058016;28;20961;-64
2023/07/21 05:55:24;;;;;;;18.90;7.70;;;;;;;30.34;53.14;100404.88;5069396;28;20075;-66
2023/07/21 05:57:55;;;;;;;22.73;7.40;;;;;;;30.34;53.30;100400.31;5058373;28;20465;-65
2023/07/21 06:00:30;;;;;;;12.23;7.70;;;;;;;30.25;52.25;100394.00;5068822;28;20076;-61
2023/07/21 06:03:00;;;;;;;10.90;6.90;;;;;;;30.34;53.23;100397.63;5059590;28;20476;-63
2023/07/21 06:05:32;;;;;;;14.53;7.47;;;;;;;30.37;53.23;100391.94;5069232;28;20051;-57
2023/07/21 06:08:02;;;;;;;12.90;7.20;;;;;;;30.31;52.63;100395.25;5060931;28;20048;-66
2023/07/21 06:10:34;;;;;;;11.63;7.20;;;;;;;30.26;52.94;100394.84;5070112;28;20128;-64
2023/07/21 06:13:06;;;;;;;14.37;7.43;;;;;;;30.31;53.83;100388.00;5059750;28;20048;-62
2023/07/21 06:15:38;;;;;;;19.50;8.13;;;;;;;30.43;52.91;100390.47;5068814;28;20047;-62
2023/07/21 06:18:09;;;;;;;19.57;8.30;;;;;;;30.43;52.36;100391.34;5060258;28;20157;-62
2023/07/21 06:20:40;;;;;;;15.37;8.07;;;;;;;30.33;52.19;100379.78;5070232;28;20428;-64
2023/07/21 06:23:10;;;;;;;14.43;7.67;;;;;;;30.41;52.43;100398.72;5058458;28;20135;-62
2023/07/21 06:25:41;;;;;;;14.50;8.37;;;;;;;30.34;52.52;100392.25;5064674;28;20469;-66
2023/07/21 06:28:12;;;;;;;14.70;7.57;;;;;;;30.27;52.63;100394.66;5073427;28;20130;-65
2023/07/21 06:30:45;;;;;;;15.93;7.67;;;;;;;30.20;52.32;100390.84;5062011;28;20076;-61
2023/07/21 06:33:16;;;;;;;19.63;7.07;;;;;;;30.15;52.21;100392.28;5071917;28;20170;-60
2023/07/21 06:35:46;;;;;;;15.07;7.23;;;;;;;30.15;52.31;100400.38;5061219;28;20117;-66
2023/07/21 06:38:17;;;;;;;12.03;7.00;;;;;;;30.10;52.57;100401.69;5072877;28;20058;-65
2023/07/21 06:40:48;;;;;;;14.20;6.73;;;;;;;29.98;51.95;100402.88;5062158;28;20036;-62
2023/07/21 06:43:18;;;;;;;13.17;7.53;;;;;;;29.89;52.27;100403.75;5073132;28;20083;-59
2023/07/21 06:45:50;;;;;;;13.63;6.73;;;;;;;29.66;53.02;100366.38;5061769;28;20052;-64
2023/07/21 06:48:21;;;;;;;13.57;6.90;;;;;;;29.86;52.78;100404.03;5072052;28;20055;-61
2023/07/21 06:50:51;;;;;;;12.60;6.60;;;;;;;29.86;53.04;100393.28;5062406;28;20140;-64
2023/07/21 06:53:22;;;;;;;18.43;7.27;;;;;;;29.90;53.80;100410.81;5072567;28;20047;-60
2023/07/21 06:55:54;;;;;;;16.13;6.83;;;;;;;29.88;54.63;100388.59;5061893;28;20063;-64
2023/07/21 06:58:25;;;;;;;8.93;6.10;;;;;;;29.94;54.12;100396.06;5073247;28;20039;-65
2023/07/21 07:00:57;;;;;;;10.23;5.57;;;;;;;29.87;54.26;100394.94;5062783;28;20486;-63
2023/07/21 07:03:29;;;;;;;9.10;5.47;;;;;;;29.82;54.41;100398.09;5072488;28;20051;-62
2023/07/21 07:06:00;;;;;;;9.00;5.10;;;;;;;29.79;54.54;100398.38;5061523;28;20408;-64
2023/07/21 07:08:30;;;;;;;10.60;5.03;;;;;;;29.64;55.03;100397.97;5071144;28;20416;-63
2023/07/21 07:11:01;;;;;;;6.57;5.23;;;;;;;29.60;55.41;100391.16;5060909;28;20408;-64
2023/07/21 07:13:32;;;;;;;6.43;4.93;;;;;;;29.54;55.50;100399.81;5072653;28;20097;-63
2023/07/21 07:16:04;;;;;;;10.90;5.53;;;;;;;29.46;55.15;100397.00;5061716;28;20527;-63
2023/07/21 07:18:35;;;;;;;8.70;5.17;;;;;;;29.46;55.60;100397.84;5071649;28;20425;-64
2023/07/21 07:21:06;;;;;;;12.90;5.30;;;;;;;29.35;55.50;100399.84;5060203;28;20043;-65
2023/07/21 07:23:36;;;;;;;9.53;4.77;;;;;;;29.21;55.73;100402.00;5071127;28;20108;-63
2023/07/21 07:26:10;;;;;;;9.80;4.80;;;;;;;28.76;55.89;100351.41;5061049;28;20066;-65
2023/07/21 07:28:40;;;;;;;8.17;5.00;;;;;;;29.01;56.35;100408.34;5072267;28;20055;-65
2023/07/21 07:31:12;;;;;;;12.13;5.07;;;;;;;29.02;57.04;100405.47;5060080;28;20040;-65
2023/07/21 07:33:44;;;;;;;9.93;5.20;;;;;;;28.93;56.58;100408.16;5061161;28;20048;-65
2023/07/21 07:36:15;;;;;;;9.33;4.83;;;;;;;28.79;56.48;100410.28;5070634;28;20442;-63
2023/07/21 07:38:46;;;;;;;11.90;4.70;;;;;;;28.77;56.55;100420.31;5060273;28;20133;-61
2023/07/21 07:41:18;;;;;;;11.53;5.43;;;;;;;28.72;56.74;100419.88;5070570;28;20048;-65
2023/07/21 07:43:49;;;;;;;11.93;5.47;;;;;;;28.66;56.59;100425.00;5059804;28;20134;-64
2023/07/21 07:46:21;;;;;;;8.20;5.10;;;;;;;28.47;57.30;100393.53;5071502;28;20075;-62
2023/07/21 07:48:52;;;;;;;10.30;5.30;;;;;;;28.56;57.48;100419.59;5060962;28;20052;-63
2023/07/21 07:51:25;;;;;;;7.67;4.97;;;;;;;28.42;57.87;100415.41;5070354;28;20112;-66
2023/07/21 07:53:57;;;;;;;10.37;5.40;;;;;;;28.36;57.59;100413.28;5061465;28;20059;-65
2023/07/21 07:56:28;;;;;;;8.40;5.20;;;;;;;28.37;57.37;100421.19;5071951;28;20047;-63
2023/07/21 07:58:59;;;;;;;11.03;5.37;;;;;;;28.31;57.54;100427.09;5060980;28;20040;-65
2023/07/21 08:01:31;;;;;;;10.30;4.90;;;;;;;28.20;58.11;100427.19;5070876;28;20067;-60
2023/07/21 08:04:02;;;;;;;13.10;5.27;;;;;;;28.17;58.35;100430.16;5061372;28;20123;-63
2023/07/21 08:06:33;;;;;;;8.00;5.17;;;;;;;28.13;58.75;100434.09;5070514;28;20447;-65
2023/07/21 08:09:05;;;;;;;8.43;5.63;;;;;;;28.03;58.68;100438.56;5061640;28;20128;-66
2023/07/21 08:11:37;;;;;;;13.17;5.60;;;;;;;27.95;58.78;100450.81;5071934;28;20482;-65
2023/07/21 08:14:07;;;;;;;12.63;6.10;;;;;;;27.86;58.46;100443.56;5060971;28;20051;-61
2023/07/21 08:16:40;;;;;;;12.47;5.90;;;;;;;27.80;58.77;100454.78;5072221;28;20963;-64
2023/07/21 08:19:10;;;;;;;10.60;5.33;;;;;;;27.64;58.38;100454.41;5060997;28;20063;-65
2023/07/21 08:21:41;;;;;;;7.40;5.50;;;;;;;27.57;58.82;100463.97;5068684;28;20378;-65
2023/07/21 08:24:12;;;;;;;10.40;5.20;;;;;;;27.53;58.72;100461.56;5069886;28;20130;-62
2023/07/21 08:26:42;;;;;;;15.50;5.43;;;;;;;27.46;58.21;100473.78;5060145;28;20127;-61
2023/07/21 08:29:13;;;;;;;11.97;6.13;;;;;;;27.31;57.54;100465.19;5069388;28;20408;-64
2023/07/21 08:31:45;;;;;;;10.63;5.77;;;;;;;27.21;58.02;100474.09;5067267;28;20074;-66
2023/07/21 08:34:15;;;;;;;10.77;5.53;;;;;;;27.19;58.82;100481.44;5114648;28;20087;-65
2023/07/21 08:36:46;;;;;;;11.83;6.07;;;;;;;27.19;59.01;100486.81;5100374;28;20041;-66
2023/07/21 08:39:24;;;;;;;9.60;5.63;;;;;;;26.94;58.20;100480.75;5072933;28;20048;-66
2023/07/21 08:41:56;;;;;;;8.70;5.07;;;;;;;26.93;58.55;100496.94;5063847;28;20093;-68
2023/07/21 08:44:27;;;;;;;15.00;6.10;;;;;;;26.77;59.05;100498.19;5073210;28;20097;-68
2023/07/21 08:46:59;;;;;;;10.03;4.77;;;;;;;26.71;59.95;100503.19;5101953;28;20074;-68
2023/07/21 08:49:30;;;;;;;16.40;5.40;;;;;;;26.68;60.34;100505.16;5113121;28;20048;-67
2023/07/21 08:52:01;;;;;;;11.73;6.40;;;;;;;26.64;59.88;100498.34;5089751;28;20126;-67
2023/07/21 08:54:31;;;;;;;12.00;5.67;;;;;;;26.57;59.59;100507.84;5091984;28;20043;-68
2023/07/21 08:57:02;;;;;;;12.67;5.80;;;;;;;26.53;60.19;100505.50;5082604;28;20073;-66
2023/07/21 08:59:32;;;;;;;8.80;5.40;;;;;;;26.45;60.29;100503.41;5085915;28;20534;-66
2023/07/21 09:02:07;;;;;;;14.00;5.70;;;;;;;26.23;60.44;100496.22;5081239;28;20044;-65
2023/07/21 09:04:40;;;;;;;11.73;5.50;;;;;;;26.23;61.04;100510.47;5109555;28;20431;-65
2023/07/21 09:07:14;;;;;;;17.33;5.60;;;;;;;26.03;61.20;100470.97;5066878;28;20044;-66
2023/07/21 09:09:51;;;;;;;15.80;5.90;;;;;;;26.27;61.49;100513.75;5065869;28;20040;-66
2023/07/21 09:12:21;;;;;;;13.30;5.47;;;;;;;26.19;61.49;100509.00;5088901;28;20122;-66
2023/07/21 09:14:55;;;;;;;15.30;5.90;;;;;;;26.09;61.72;100518.72;5077741;28;20165;-65
2023/07/21 09:17:28;;;;;;;10.30;5.73;;;;;;;25.96;61.97;100520.63;5076599;28;20044;-65
2023/07/21 09:19:59;;;;;;;14.93;6.03;;;;;;;25.75;62.55;100510.56;5069825;28;20069;-65
2023/07/21 09:22:31;;;;;;;15.03;5.90;;;;;;;25.68;62.77;100525.38;5079430;28;20120;-65
2023/07/21 09:25:30;;;;;;;15.53;6.37;;;;;;;25.60;62.90;100527.78;5073108;28;20105;-66
2023/07/21 09:28:03;;;;;;;;;;;;;;;25.58;63.02;100514.50;5060065;28;20049;-65
2023/07/21 09:30:51;;;;;;;14.10;5.97;;;;;;;25.53;63.15;100526.53;5068405;28;19979;-66
2023/07/21 09:33:26;;;;;;;18.40;7.23;;;;;;;25.43;62.76;100520.16;5070334;28;20139;-59
2023/07/21 09:36:08;;;;;;;15.50;7.00;;;;;;;25.30;62.92;100526.41;5059196;28;20051;-63
2023/07/21 09:38:43;;;;;;;11.27;5.97;;;;;;;25.22;63.67;100520.78;5070112;28;20725;-62
2023/07/21 09:41:23;;;;;;;15.80;6.03;;;;;;;24.72;64.69;100461.16;5059132;28;20127;-65
2023/07/21 09:43:55;;;;;;;8.80;6.13;;;;;;;24.78;64.63;100518.63;5059253;28;20074;-66
2023/07/21 09:46:28;;;;;;;12.23;6.33;;;;;;;24.65;66.11;100529.34;5070472;28;20570;-62
2023/07/21 09:49:01;;;;;;;11.70;6.30;;;;;;;24.50;66.42;100524.13;5059655;28;20172;-62
2023/07/21 09:51:36;;;;;;;10.57;6.57;;;;;;;24.33;67.14;100516.41;5067946;28;20052;-61
2023/07/21 09:54:12;;;;;;;10.80;6.43;;;;;;;24.20;67.67;100512.91;5059478;28;20054;-64
2023/07/21 09:57:11;;;;;;;14.27;7.43;;;;;;;24.02;67.88;100515.88;5057452;28;20378;-65
2023/07/21 09:59:56;;;;;;;16.07;7.17;;;;;;;23.86;68.36;100509.84;5058456;28;20147;-65
2023/07/21 10:02:27;;;;;;;13.13;6.77;;;;;;;23.73;68.59;100519.66;5073213;28;20032;-62
2023/07/21 10:05:00;;;;;;;10.73;6.60;;;;;;;23.56;68.97;100524.25;5063867;28;20047;-64
2023/07/21 10:11:01;;;;;;;13.33;7.37;;;;;;;23.25;70.36;100536.97;5062505;28;20048;-64
2023/07/21 10:13:35;;;;;;;17.37;7.33;;;;;;;23.11;71.06;100539.66;5072335;28;20371;-66
2023/07/21 10:16:09;;;;;;;11.57;6.97;;;;;;;23.06;71.52;100551.56;5062645;28;20073;-65
2023/07/21 10:19:01;;;;;;;13.97;6.93;;;;;;;22.95;71.91;100554.91;5072517;28;20516;-63
2023/07/21 10:21:48;;;;;;;13.27;7.43;;;;;;;22.83;72.33;100549.38;5073758;28;20587;-65
2023/07/21 10:24:25;;;;;;;10.80;6.57;;;;;;;22.74;72.93;100568.63;5063165;28;20528;-65
2023/07/21 10:26:56;;;;;;;20.57;7.17;;;;;;;22.56;72.79;100554.63;5063349;28;20044;-66
2023/07/21 10:29:31;;;;;;;12.80;6.93;;;;;;;22.50;73.15;100559.47;5073423;28;20047;-65
2023/07/21 10:32:06;;;;;;;17.00;6.53;;;;;;;22.45;73.35;100564.22;5062078;28;20083;-66
2023/07/21 10:35:07;;;;;;;22.80;7.13;;;;;;;22.21;73.66;100538.13;5072706;28;20054;-65
2023/07/21 10:37:42;;;;;;;20.57;6.53;;;;;;;22.32;74.85;100567.63;5072110;28;20431;-65
2023/07/21 10:40:25;;;;;;;12.33;5.60;;;;;;;22.16;74.77;100553.50;5060979;28;20127;-62
2023/07/21 10:43:02;;;;;;;15.82;5.57;;;;;;;22.20;75.05;100578.19;5061433;28;20065;-63
2023/07/21 10:45:47;;;;;;;13.43;6.27;;;;;;;22.15;75.29;100586.41;5071497;28;20489;-62
2023/07/21 10:48:25;;;;;;;10.83;5.83;;;;;;;22.02;74.84;100596.06;5071542;28;20143;-65
2023/07/21 10:51:02;;;;;;;9.87;4.60;;;;;;;21.75;74.48;100562.13;5061011;28;20094;-62
2023/07/21 10:53:36;;;;;;;7.18;3.75;;;;;;;21.89;74.81;100596.78;5072096;28;20051;-65
2023/07/21 10:56:07;;;;;;;6.87;3.80;;;;;;;21.86;75.33;100591.63;5058036;28;20040;-65
2023/07/21 10:58:40;;;;;;;10.33;3.73;;;;;;;21.81;75.09;100598.16;5073739;28;20094;-62
2023/07/21 11:01:11;;;;;;;7.87;3.73;;;;;;;21.74;75.51;100597.63;5062488;28;20754;-63
2023/07/21 11:03:44;;;;;;;10.60;4.50;;;;;;;21.72;75.76;100610.19;5065869;28;20278;-65
2023/07/21 11:06:19;;;;;;;6.20;3.80;;;;;;;21.57;75.82;100621.69;5072912;28;20051;-62
2023/07/21 11:08:54;;;;;;;9.93;4.17;;;;;;;21.47;76.38;100624.88;5062102;28;20290;-62
2023/07/21 11:11:25;;;;;;;13.17;6.13;;;;;;;21.36;77.17;100635.19;5072561;28;20278;-64
2023/07/21 11:13:56;;;;;;;17.00;5.37;;;;;;;21.27;77.41;100635.72;5061821;28;20632;-66
2023/07/21 11:16:30;;;;;;;8.77;4.00;;;;;;;21.23;78.24;100628.84;5071919;28;20277;-64
2023/07/21 11:19:00;;;;;;;8.03;4.33;;;;;;;21.19;77.35;100621.97;5063215;28;20315;-66
2023/07/21 11:21:31;;;;;;;8.00;3.83;;;;;;;21.26;77.17;100652.59;5072282;28;20324;-62
2023/07/21 11:24:11;;;;;;;15.90;3.80;;;;;;;21.25;77.07;100659.72;5060976;28;20288;-65
2023/07/21 11:26:42;;;;;;;9.60;4.27;;;;;;;21.25;77.29;100664.19;5065285;28;20286;-63
2023/07/21 11:29:14;;;;;;;8.50;3.40;;;;;;;21.21;77.03;100662.63;5072380;28;20828;-63
2023/07/21 11:31:45;;;;;;;8.60;4.10;;;;;;;21.13;77.11;100665.69;5060828;28;21102;-65
2023/07/21 11:34:22;;;;;;;6.57;3.33;;;;;;;21.14;76.44;100677.19;5072238;28;20286;-64
2023/07/21 11:36:58;;;;;;;8.63;3.30;;;;;;;21.15;76.45;100681.56;5062762;28;20775;-65
2023/07/21 11:39:33;;;;;;;10.93;3.50;;;;;;;21.06;76.28;100675.78;5071662;28;20277;-66
2023/07/21 11:42:05;;;;;;;9.57;3.43;;;;;;;21.04;76.91;100680.34;5061052;28;20700;-65
2023/07/21 11:44:37;;;;;;;6.07;3.30;;;;;;;20.96;77.55;100684.34;5072358;28;20301;-64
2023/07/21 11:47:11;;;;;;;11.13;3.57;;;;;;;20.85;78.15;100687.56;5061038;28;20355;-64
2023/07/21 11:49:44;;;;;;;7.17;3.30;;;;;;;20.74;79.25;100684.59;5067284;28;20944;-63